Terminal Aerodrome Forecast
Issued by NWS Central Illinois

Home | Current Version | Previous Version | Text Only | Print | Product List | Glossary On
Versions: 1 2 3 4 5 6 7 8 9 10 11 12 13 14 15 16
614
FTUS43 KILX 250708 AAA
TAFSPI
TAF AMD
KSPI 250708Z 2507/2606 16014KT 6SM -RA VCTS SCT020CB BKN080
      TEMPO 2507/2508 2SM +TSRA OVC020CB
     FM250800 13011KT 4SM -SHRA BR VCTS SCT012 OVC025CB
     FM251000 14014KT 5SM -RA BR OVC015
     FM251500 16014G22KT P6SM VCSH OVC045
     FM252100 14014KT P6SM OVC050
     FM260200 14008KT P6SM BKN040=

USA.gov is the U.S. government's official web portal to all federal, state and local government web resources and services.